createdAt,value
2023-08-20T00:00:22.321Z,98364.56
2023-08-20T00:03:14.959Z,98366.59
2023-08-20T00:06:12.246Z,98367.94
2023-08-20T00:09:02.993Z,98366.88
2023-08-20T00:12:00.217Z,98359.50
2023-08-20T00:15:06.223Z,98364.69
2023-08-20T00:18:04.249Z,98359.13
2023-08-20T00:20:55.585Z,98362.25
2023-08-20T00:23:53.266Z,98366.97
2023-08-20T00:26:44.344Z,98371.97
2023-08-20T00:29:42.220Z,98368.00
2023-08-20T00:32:33.020Z,98358.53
2023-08-20T00:35:30.221Z,98351.16
2023-08-20T00:38:20.894Z,98357.41
2023-08-20T00:41:18.211Z,98358.72
2023-08-20T00:44:08.862Z,98350.53
2023-08-20T00:47:08.209Z,98356.56
2023-08-20T00:49:59.285Z,98352.59
2023-08-20T00:52:56.190Z,98354.94
2023-08-20T00:55:46.892Z,98357.34
2023-08-20T00:58:44.199Z,98353.88
2023-08-20T01:01:34.874Z,98353.06
2023-08-20T01:04:32.251Z,98358.50
2023-08-20T01:07:35.709Z,98352.44
2023-08-20T01:10:38.192Z,98353.22
2023-08-20T01:13:29.023Z,98356.91
2023-08-20T01:16:26.214Z,98355.81
2023-08-20T01:19:22.835Z,98356.59
2023-08-20T01:22:42.248Z,98359.78
2023-08-20T01:26:22.158Z,98354.25
2023-08-20T01:29:20.173Z,98353.69
2023-08-20T01:32:13.089Z,98349.19
2023-08-20T01:35:11.234Z,98362.25
2023-08-20T01:38:01.885Z,98359.06
2023-08-20T01:40:59.205Z,98355.91
2023-08-20T01:43:49.865Z,98355.34
2023-08-20T01:46:47.190Z,98354.03
2023-08-20T01:49:44.190Z,98353.19
2023-08-20T01:52:34.922Z,98361.84
2023-08-20T01:55:33.029Z,98362.63
2023-08-20T01:58:24.438Z,98355.56
2023-08-20T02:01:21.234Z,98356.59
2023-08-20T02:04:12.032Z,98362.09
2023-08-20T02:07:09.213Z,98352.66
2023-08-20T02:10:00.016Z,98357.66
2023-08-20T02:12:57.165Z,98359.97
2023-08-20T02:15:47.819Z,98358.13
2023-08-20T02:18:45.193Z,98361.50
2023-08-20T02:21:36.114Z,98369.34
2023-08-20T02:24:33.180Z,98363.53
2023-08-20T02:27:23.919Z,98366.41
2023-08-20T02:30:21.188Z,98368.25
2023-08-20T02:33:12.339Z,98355.91
2023-08-20T02:36:11.173Z,98359.06
2023-08-20T02:39:01.863Z,98359.31
2023-08-20T02:41:59.219Z,98355.63
2023-08-20T02:44:50.250Z,98360.81
2023-08-20T02:47:47.214Z,98359.47
2023-08-20T02:50:38.013Z,98361.56
2023-08-20T02:53:35.166Z,98359.72
2023-08-20T02:56:25.848Z,98359.47
2023-08-20T02:59:23.172Z,98363.16
2023-08-20T03:02:13.854Z,98364.41
2023-08-20T03:05:13.158Z,98363.88
2023-08-20T03:08:06.756Z,98376.44
2023-08-20T03:11:04.143Z,98377.22
2023-08-20T03:13:54.821Z,98373.03
2023-08-20T03:16:52.146Z,98381.16
2023-08-20T03:19:59.337Z,98376.94
2023-08-20T03:22:57.150Z,98383.00
2023-08-20T03:25:47.801Z,98384.00
2023-08-20T03:28:45.139Z,98381.34
2023-08-20T03:31:35.857Z,98386.31
2023-08-20T03:34:33.135Z,98400.00
2023-08-20T03:37:23.865Z,98393.97
2023-08-20T03:40:21.167Z,98393.19
2023-08-20T03:43:11.995Z,98392.63
2023-08-20T03:46:10.189Z,98391.03
2023-08-20T03:49:00.981Z,98410.66
2023-08-20T03:51:58.123Z,98409.88
2023-08-20T03:54:55.161Z,98403.59
2023-08-20T03:57:46.277Z,98408.78
2023-08-20T04:00:44.119Z,98411.34
2023-08-20T04:03:34.827Z,98406.38
2023-08-20T04:06:32.121Z,98408.78
2023-08-20T04:09:22.951Z,98412.50
2023-08-20T04:12:20.160Z,98402.88
2023-08-20T04:15:10.912Z,98409.53
2023-08-20T04:18:08.161Z,98408.00
2023-08-20T04:20:59.048Z,98410.91
2023-08-20T04:23:56.124Z,98411.78
2023-08-20T04:26:46.859Z,98411.28
2023-08-20T04:29:44.120Z,98411.56
2023-08-20T04:32:34.900Z,98411.06
2023-08-20T04:35:32.119Z,98406.91
2023-08-20T04:38:23.450Z,98410.94
2023-08-20T04:41:21.273Z,98406.53
2023-08-20T04:44:12.033Z,98403.22
2023-08-20T04:47:09.103Z,98404.66
2023-08-20T04:49:59.763Z,98408.47
2023-08-20T04:52:57.152Z,98411.72
2023-08-20T04:55:47.827Z,98412.56
2023-08-20T04:58:45.137Z,98409.53
2023-08-20T05:01:35.840Z,98405.69
2023-08-20T05:04:33.084Z,98401.88
2023-08-20T05:07:30.079Z,98409.63
2023-08-20T05:10:28.132Z,98407.81
2023-08-20T05:13:21.234Z,98404.19
2023-08-20T05:16:18.166Z,98400.06
2023-08-20T05:19:08.864Z,98402.78
2023-08-20T05:22:07.114Z,98405.72
2023-08-20T05:25:04.197Z,98412.88
2023-08-20T05:28:02.134Z,98412.13
2023-08-20T05:30:57.640Z,98411.88
2023-08-20T05:33:55.123Z,98410.28
2023-08-20T05:36:45.804Z,98413.94
2023-08-20T05:39:51.123Z,98413.09
2023-08-20T05:42:41.825Z,98419.31
2023-08-20T05:45:39.137Z,98415.44
2023-08-20T05:48:30.201Z,98409.75
2023-08-20T05:51:27.110Z,98412.16
2023-08-20T05:54:17.858Z,98419.50
2023-08-20T05:57:15.095Z,98413.88
2023-08-20T06:00:06.805Z,98425.06
2023-08-20T06:03:04.138Z,98423.84
2023-08-20T06:05:54.880Z,98424.41
2023-08-20T06:09:06.632Z,98425.63
2023-08-20T06:11:58.806Z,98419.78
2023-08-20T06:14:56.119Z,98422.53
2023-08-20T06:17:46.814Z,98419.50
2023-08-20T06:20:44.143Z,98418.50
2023-08-20T06:23:44.105Z,98421.53
2023-08-20T06:26:42.082Z,98419.22
2023-08-20T06:29:32.860Z,98413.19
2023-08-20T06:32:32.101Z,98416.06
2023-08-20T06:35:22.832Z,98417.94
2023-08-20T06:38:20.227Z,98406.28
2023-08-20T06:41:10.921Z,98412.91
2023-08-20T06:44:08.085Z,98408.25
2023-08-20T06:46:58.769Z,98408.78
2023-08-20T06:49:58.097Z,98403.66
2023-08-20T06:52:48.790Z,98419.31
2023-08-20T06:55:46.098Z,98411.91
2023-08-20T06:58:37.204Z,98420.41
2023-08-20T07:01:34.152Z,98418.06
2023-08-20T07:04:25.095Z,98418.41
2023-08-20T07:07:22.248Z,98420.34
2023-08-20T07:10:13.301Z,98414.28
2023-08-20T07:13:11.092Z,98418.56
2023-08-20T07:16:01.946Z,98412.22
2023-08-20T07:19:01.020Z,98402.34
2023-08-20T07:21:51.712Z,98405.25
2023-08-20T07:24:49.051Z,98411.81
2023-08-20T07:27:39.717Z,98417.22
2023-08-20T07:30:37.051Z,98410.78
2023-08-20T07:33:27.717Z,98411.75
2023-08-20T07:36:26.084Z,98406.81
2023-08-20T07:39:18.666Z,98400.19
2023-08-20T07:42:16.217Z,98408.59
2023-08-20T07:45:08.320Z,98404.69
2023-08-20T07:48:07.245Z,98408.56
2023-08-20T07:50:58.201Z,98409.94
2023-08-20T07:53:55.054Z,98404.41
2023-08-20T07:57:14.013Z,98408.94
2023-08-20T08:00:12.104Z,98415.41
2023-08-20T08:03:02.867Z,98414.19
2023-08-20T08:06:02.329Z,98416.66
2023-08-20T08:08:54.820Z,98413.59
2023-08-20T08:11:54.067Z,98412.38
2023-08-20T08:14:45.001Z,98406.78
2023-08-20T08:17:42.045Z,98413.03
2023-08-20T08:20:33.060Z,98404.56
2023-08-20T08:23:30.049Z,98413.44
2023-08-20T08:26:20.737Z,98418.22
2023-08-20T08:29:18.066Z,98413.72
2023-08-20T08:32:08.630Z,98412.84
2023-08-20T08:35:06.074Z,98408.53
2023-08-20T08:38:11.021Z,98400.09
2023-08-20T08:41:02.509Z,98413.91
2023-08-20T08:44:01.128Z,98410.59
2023-08-20T08:46:52.717Z,98410.06
2023-08-20T08:49:53.084Z,98402.53
2023-08-20T08:52:47.150Z,98409.31
2023-08-20T08:55:45.026Z,98412.19
2023-08-20T08:58:35.721Z,98407.28
2023-08-20T09:01:34.590Z,98417.97
2023-08-20T09:04:25.645Z,98416.31
2023-08-20T09:07:23.046Z,98421.09
2023-08-20T09:10:13.666Z,98422.31
2023-08-20T09:13:12.043Z,98410.41
2023-08-20T09:16:07.922Z,98414.09
2023-08-20T09:19:09.020Z,98416.94
2023-08-20T09:22:09.027Z,98420.47
2023-08-20T09:24:59.866Z,98424.19
2023-08-20T09:27:57.040Z,98412.09
2023-08-20T09:31:03.922Z,98420.38
2023-08-20T09:34:03.042Z,98418.41
2023-08-20T09:36:53.923Z,98413.53
2023-08-20T09:39:51.462Z,98418.16
2023-08-20T09:42:43.483Z,98421.75
2023-08-20T09:45:41.067Z,98418.56
2023-08-20T09:48:38.685Z,98419.03
2023-08-20T09:51:41.038Z,98416.16
2023-08-20T09:54:51.776Z,98415.25
2023-08-20T09:57:50.023Z,98396.19
2023-08-20T10:00:40.894Z,98408.81
2023-08-20T10:03:38.045Z,98406.75
2023-08-20T10:06:30.509Z,98408.50
2023-08-20T10:09:29.128Z,98402.97
2023-08-20T10:12:21.331Z,98403.13
2023-08-20T10:15:22.154Z,98383.75
2023-08-20T10:18:15.364Z,98393.88
2023-08-20T10:21:16.020Z,98395.47
2023-08-20T10:24:10.012Z,98392.78
2023-08-20T10:27:19.005Z,98385.25
2023-08-20T10:30:19.638Z,98383.13
2023-08-20T10:33:16.990Z,98388.38
2023-08-20T10:36:28.060Z,98377.38
2023-08-20T10:39:32.979Z,98378.25
2023-08-20T10:42:34.000Z,98373.81
2023-08-20T10:45:31.062Z,98371.81
2023-08-20T10:48:21.672Z,98378.44
2023-08-20T10:51:36.039Z,98368.25
2023-08-20T10:54:26.854Z,98374.53
2023-08-20T10:57:25.485Z,98368.81
2023-08-20T11:00:17.638Z,98367.59
2023-08-20T11:03:16.012Z,98374.75
2023-08-20T11:06:07.900Z,98372.88
2023-08-20T11:09:06.004Z,98370.31
2023-08-20T11:11:57.342Z,98364.19
2023-08-20T11:14:57.103Z,98366.78
2023-08-20T11:17:51.335Z,98363.25
2023-08-20T11:20:49.030Z,98357.09
2023-08-20T11:23:42.738Z,98361.09
2023-08-20T11:26:42.047Z,98365.56
2023-08-20T11:29:32.823Z,98361.66
2023-08-20T11:32:31.986Z,98355.25
2023-08-20T11:35:22.800Z,98355.59
2023-08-20T11:38:21.036Z,98353.81
2023-08-20T11:41:11.734Z,98341.72
2023-08-20T11:44:09.002Z,98356.25
2023-08-20T11:46:59.721Z,98359.97
2023-08-20T11:50:11.988Z,98354.69
2023-08-20T11:53:04.337Z,98348.09
2023-08-20T11:56:01.976Z,98351.91
2023-08-20T11:58:53.645Z,98350.69
2023-08-20T12:01:51.046Z,98346.13
2023-08-20T12:04:41.769Z,98341.59
2023-08-20T12:07:39.289Z,98344.13
2023-08-20T12:10:32.521Z,98340.00
2023-08-20T12:13:29.995Z,98333.97
2023-08-20T12:16:24.466Z,98345.25
2023-08-20T12:19:22.020Z,98339.16
2023-08-20T12:22:13.345Z,98333.66
2023-08-20T12:25:10.994Z,98331.72
2023-08-20T12:28:08.941Z,98333.19
2023-08-20T12:31:06.056Z,98329.88
2023-08-20T12:33:56.619Z,98333.63
2023-08-20T12:36:54.053Z,98321.44
2023-08-20T12:39:44.772Z,98323.75
2023-08-20T12:42:43.762Z,98313.78
2023-08-20T12:45:35.489Z,98322.84
2023-08-20T12:48:32.998Z,98322.13
2023-08-20T12:51:23.694Z,98322.19
2023-08-20T12:54:21.037Z,98322.97
2023-08-20T12:57:11.708Z,98324.84
2023-08-20T13:00:19.004Z,98323.66
2023-08-20T13:03:10.543Z,98318.31
2023-08-20T13:06:07.980Z,98321.84
2023-08-20T13:08:59.450Z,98314.63
2023-08-20T13:11:59.000Z,98317.66
2023-08-20T13:14:50.122Z,98308.41
2023-08-20T13:17:48.204Z,98313.25
2023-08-20T13:20:38.960Z,98316.06
2023-08-20T13:23:35.942Z,98318.88
2023-08-20T13:26:26.604Z,98314.00
2023-08-20T13:29:23.950Z,98313.22
2023-08-20T13:32:14.633Z,98309.44
2023-08-20T13:35:13.030Z,98313.97
2023-08-20T13:38:05.653Z,98314.53
2023-08-20T13:41:09.235Z,98324.16
2023-08-20T13:44:03.913Z,98321.59
2023-08-20T13:47:03.980Z,98318.41
2023-08-20T13:49:54.675Z,98315.06
2023-08-20T13:52:51.940Z,98311.44
2023-08-20T13:55:42.820Z,98311.03
2023-08-20T13:58:39.943Z,98315.88
2023-08-20T14:01:30.575Z,98307.44
2023-08-20T14:04:28.200Z,98306.28
2023-08-20T14:07:19.679Z,98306.31
2023-08-20T14:10:17.958Z,98309.78
2023-08-20T14:13:08.601Z,98306.69
2023-08-20T14:16:06.004Z,98297.47
2023-08-20T14:18:56.779Z,98300.56
2023-08-20T14:21:53.925Z,98308.16
2023-08-20T14:24:44.545Z,98297.31
2023-08-20T14:27:41.933Z,98297.53
2023-08-20T14:30:36.983Z,98294.25
2023-08-20T14:33:38.116Z,98301.94
2023-08-20T14:36:28.806Z,98295.75
2023-08-20T14:39:25.953Z,98296.59
2023-08-20T14:42:16.531Z,98303.91
2023-08-20T14:45:13.966Z,98298.47
2023-08-20T14:48:05.177Z,98293.13
2023-08-20T14:51:02.970Z,98294.63
2023-08-20T14:53:53.662Z,98294.13
2023-08-20T14:56:51.932Z,98296.81
2023-08-20T14:59:43.142Z,98300.97
2023-08-20T15:02:40.011Z,98296.28
2023-08-20T15:05:31.581Z,98306.25
2023-08-20T15:08:28.912Z,98294.38
2023-08-20T15:11:25.977Z,98299.44
2023-08-20T15:14:16.697Z,98298.78
2023-08-20T15:17:13.954Z,98304.03
2023-08-20T15:20:13.400Z,98292.56
2023-08-20T15:23:11.933Z,98301.66
2023-08-20T15:26:02.638Z,98306.84
2023-08-20T15:28:59.951Z,98301.72
2023-08-20T15:31:52.663Z,98295.28
2023-08-20T15:34:49.944Z,98301.31
2023-08-20T15:37:41.097Z,98293.78
2023-08-20T15:40:39.174Z,98297.44
2023-08-20T15:43:30.117Z,98292.56
2023-08-20T15:46:27.935Z,98296.19
2023-08-20T15:49:18.662Z,98294.41
2023-08-20T15:52:15.901Z,98293.41
2023-08-20T15:55:07.172Z,98302.44
2023-08-20T15:58:04.885Z,98308.91
2023-08-20T16:00:55.493Z,98298.84
2023-08-20T16:03:53.106Z,98299.47
2023-08-20T16:06:50.019Z,98299.47
2023-08-20T16:09:46.913Z,98300.41
2023-08-20T16:12:41.423Z,98297.81
2023-08-20T16:15:38.908Z,98302.91
2023-08-20T16:18:29.610Z,98308.00
2023-08-20T16:21:26.924Z,98304.66
2023-08-20T16:24:17.598Z,98299.03
2023-08-20T16:27:14.939Z,98297.97
2023-08-20T16:30:07.424Z,98299.94
2023-08-20T16:33:04.983Z,98296.56
2023-08-20T16:35:55.827Z,98303.97
2023-08-20T16:38:52.893Z,98304.50
2023-08-20T16:41:43.700Z,98319.16
2023-08-20T16:44:40.861Z,98314.63
2023-08-20T16:47:31.561Z,98318.91
2023-08-20T16:50:29.872Z,98314.75
2023-08-20T16:53:20.629Z,98322.66
2023-08-20T16:56:17.891Z,98321.13
2023-08-20T16:59:09.459Z,98323.84
2023-08-20T17:02:06.919Z,98329.66
2023-08-20T17:04:57.644Z,98339.28
2023-08-20T17:07:54.914Z,98327.81
2023-08-20T17:10:45.657Z,98330.06
2023-08-20T17:13:43.904Z,98333.06
2023-08-20T17:16:42.271Z,98327.91
2023-08-20T17:19:39.642Z,98323.38
2023-08-20T17:22:30.946Z,98328.91
2023-08-20T17:25:27.886Z,98329.78
2023-08-20T17:28:18.824Z,98328.53
2023-08-20T17:31:15.923Z,98329.78
2023-08-20T17:34:06.911Z,98332.34
2023-08-20T17:37:05.995Z,98333.56
2023-08-20T17:39:56.576Z,98338.41
2023-08-20T17:42:53.865Z,98341.31
2023-08-20T17:45:44.920Z,98342.59
2023-08-20T17:48:41.855Z,98345.72
2023-08-20T17:51:32.483Z,98353.56
2023-08-20T17:54:29.885Z,98357.97
2023-08-20T17:57:20.776Z,98352.50
2023-08-20T18:00:17.897Z,98365.91
2023-08-20T18:03:08.464Z,98364.44
2023-08-20T18:06:07.874Z,98367.09
2023-08-20T18:08:58.444Z,98360.19
2023-08-20T18:11:55.863Z,98366.34
2023-08-20T18:14:46.412Z,98371.56
2023-08-20T18:17:43.912Z,98377.38
2023-08-20T18:20:34.702Z,98374.19
2023-08-20T18:23:31.905Z,98386.31
2023-08-20T18:26:22.661Z,98389.53
2023-08-20T18:29:19.874Z,98384.72
2023-08-20T18:32:10.431Z,98398.47
2023-08-20T18:35:07.871Z,98393.28
2023-08-20T18:37:58.419Z,98393.16
2023-08-20T18:40:55.842Z,98397.72
2023-08-20T18:43:46.476Z,98403.94
2023-08-20T18:46:43.862Z,98397.19
2023-08-20T18:49:35.272Z,98409.06
2023-08-20T18:55:23.368Z,98417.72
2023-08-20T18:58:20.874Z,98418.38
2023-08-20T19:01:12.207Z,98418.75
2023-08-20T19:04:10.985Z,98415.97
2023-08-20T19:07:02.308Z,98433.50
2023-08-20T19:09:59.909Z,98430.88
2023-08-20T19:12:50.467Z,98428.03
2023-08-20T19:15:54.935Z,98430.72
2023-08-20T19:18:52.367Z,98434.44
2023-08-20T19:21:49.836Z,98441.06
2023-08-20T19:24:40.435Z,98441.13
2023-08-20T19:27:38.811Z,98447.00
2023-08-20T19:30:36.863Z,98451.00
2023-08-20T19:33:27.538Z,98451.53
2023-08-20T19:36:24.869Z,98456.53
2023-08-20T19:39:17.031Z,98447.03
2023-08-20T19:42:15.844Z,98456.06
2023-08-20T19:45:07.165Z,98454.47
2023-08-20T19:48:04.060Z,98459.78
2023-08-20T19:50:54.692Z,98458.19
2023-08-20T19:53:51.841Z,98458.25
2023-08-20T19:56:42.532Z,98463.00
2023-08-20T19:59:39.841Z,98465.66
2023-08-20T20:02:30.449Z,98462.72
2023-08-20T20:05:28.826Z,98464.31
2023-08-20T20:08:20.201Z,98468.28
2023-08-20T20:11:18.836Z,98461.97
2023-08-20T20:14:09.376Z,98471.69
2023-08-20T20:17:06.829Z,98470.13
2023-08-20T20:19:57.383Z,98469.09
2023-08-20T20:22:54.810Z,98476.19
2023-08-20T20:25:45.402Z,98478.56
2023-08-20T20:28:46.837Z,98471.94
2023-08-20T20:31:37.501Z,98480.66
2023-08-20T20:34:34.849Z,98485.38
2023-08-20T20:37:25.662Z,98488.78
2023-08-20T20:40:22.799Z,98487.44
2023-08-20T20:43:13.496Z,98488.72
2023-08-20T20:46:11.022Z,98486.88
2023-08-20T20:49:02.165Z,98488.72
2023-08-20T20:51:59.799Z,98488.16
2023-08-20T20:54:50.385Z,98485.25
2023-08-20T20:57:48.199Z,98489.44
2023-08-20T21:00:38.801Z,98491.81
2023-08-20T21:03:35.803Z,98486.25
2023-08-20T21:06:26.405Z,98491.50
2023-08-20T21:09:23.819Z,98490.72
2023-08-20T21:12:14.358Z,98494.38
2023-08-20T21:15:11.829Z,98494.91
2023-08-20T21:18:02.531Z,98499.13
2023-08-20T21:20:59.812Z,98497.78
2023-08-20T21:23:50.434Z,98497.28
2023-08-20T21:26:47.788Z,98493.84
2023-08-20T21:29:39.172Z,98502.22
2023-08-20T21:32:36.115Z,98497.94
2023-08-20T21:35:26.920Z,98507.41
2023-08-20T21:38:24.801Z,98494.78
2023-08-20T21:41:15.350Z,98504.75
2023-08-20T21:44:12.782Z,98499.75
2023-08-20T21:47:20.211Z,98496.84
2023-08-20T21:50:17.861Z,98500.50
2023-08-20T21:53:08.429Z,98507.31
2023-08-20T21:56:05.806Z,98508.06
2023-08-20T21:58:56.469Z,98504.91
2023-08-20T22:01:53.827Z,98508.34
2023-08-20T22:04:44.947Z,98508.56
2023-08-20T22:07:41.787Z,98510.63
2023-08-20T22:10:32.322Z,98504.81
2023-08-20T22:13:29.813Z,98501.41
2023-08-20T22:16:20.417Z,98514.56
2023-08-20T22:19:17.774Z,98515.31
2023-08-20T22:22:08.336Z,98519.50
2023-08-20T22:25:05.794Z,98510.84
2023-08-20T22:27:56.364Z,98512.97
2023-08-20T22:30:53.765Z,98510.84
2023-08-20T22:33:44.340Z,98517.16
2023-08-20T22:36:41.778Z,98521.34
2023-08-20T22:39:32.337Z,98521.56
2023-08-20T22:42:29.734Z,98525.53
2023-08-20T22:45:26.781Z,98525.53
2023-08-20T22:48:17.474Z,98531.59
2023-08-20T22:51:14.807Z,98521.53
2023-08-20T22:54:05.374Z,98526.78
2023-08-20T22:57:02.803Z,98528.84
2023-08-20T22:59:53.350Z,98530.41
2023-08-20T23:02:50.809Z,98531.25
2023-08-20T23:05:41.392Z,98525.38
2023-08-20T23:08:38.761Z,98528.03
2023-08-20T23:11:29.317Z,98530.66
2023-08-20T23:14:26.767Z,98530.88
2023-08-20T23:17:19.108Z,98533.94
2023-08-20T23:20:16.747Z,98517.34
2023-08-20T23:23:07.351Z,98523.34
2023-08-20T23:26:04.762Z,98526.22
2023-08-20T23:28:55.534Z,98533.06
2023-08-20T23:31:52.763Z,98523.59
2023-08-20T23:34:43.624Z,98525.72
2023-08-20T23:37:40.761Z,98526.78
2023-08-20T23:40:31.320Z,98523.34
2023-08-20T23:43:29.762Z,98522.28
2023-08-20T23:46:25.502Z,98527.84
2023-08-20T23:49:27.753Z,98517.34
2023-08-20T23:52:18.352Z,98514.69
2023-08-20T23:55:15.734Z,98527.75
2023-08-20T23:58:12.729Z,98519.34
